• Join FlightAware (Why Join?)
  • Login
  • US Flag 
10:54AM EDT


 

Airport Tracker/Info


-or-


 

Live Flight TrackerFlight Track Log ✈ XOJ552 ✈ 29-Jun-2013 ✈ KRME - KFOK

Flight Track Log - Related Links

Times and Time Zones

All times are in EDT time to prevent confusion due to time zone crossing. See the XOJ552 flight status page for this flight to view local times or setup timezone preferences in your user account.

Time Position Orientation Groundspeed Altitude Reporting Facility
EDT Latitude Longitude Course Direction KTS MPH feet Rate Location/Type
04:46PM 43.2717 -75.4458 333° Northwest 198 228 4,100  Level Boston Center
04:47PM 43.2678 -75.3514 93° East 241 277 8,900 4,020 Climbing Boston Center
04:48PM 43.2331 -75.2386 113° Southeast 264 304 12,400 3,840 Climbing Boston Center
04:49PM 43.1903 -75.1114 115° Southeast 315 362 16,600 4,200 Climbing Boston Center
04:50PM 43.1514 -74.9900 114° Southeast 339 390 20,900 2,160 Climbing Boston Center
04:51PM 43.1025 -74.8458 115° Southeast 368 423 21,000  Climbing Boston Center
04:52PM 43.0494 -74.6875 115° Southeast 421 484 21,000  Level Boston Center
04:53PM 42.9961 -74.5322 115° Southeast 442 509 21,000  Level Boston Center
04:54PM 42.9425 -74.3831 116° Southeast 442 509 21,000  Level Boston Center
04:55PM 42.8694 -74.2503 127° Southeast 442 509 21,000  Level Boston Center
04:56PM 42.7967 -74.1153 126° Southeast 442 509 21,000  Level Boston Center
04:57PM 42.7256 -73.9803 126° Southeast 442 509 21,000 -60 Level Boston Center
04:58PM 42.6522 -73.8486 127° Southeast 442 509 20,900  Descending Boston Center
04:59PM 42.5911 -73.7289 125° Southeast 442 509 21,000  Climbing Boston Center
05:00PM 42.5194 -73.5950 126° Southeast 436 502 21,000  Level Boston Center
05:01PM 42.4458 -73.4614 127° Southeast 436 502 21,000 -360 Level Boston Center
05:02PM 42.3575 -73.2886 125° Southeast 449 517 20,300 -960 Descending Boston Center
05:03PM 42.2753 -73.1500 129° Southeast 443 510 19,000 -660 Descending Boston Center
05:04PM 42.1967 -73.0369 133° Southeast 423 487 19,000  Level Boston Center
05:05PM 42.1139 -72.9242 135° Southeast 416 479 19,000  Level Boston Center
05:06PM 42.0453 -72.8372 137° Southeast 416 479 19,000  Level Boston Center
05:07PM 41.9436 -72.7025 135° Southeast 416 479 19,000 -300 Level Boston Center
05:08PM 41.8522 -72.6100 143° Southeast 421 484 18,400 -1,320 Descending Boston Center
05:09PM 41.7856 -72.5431 143° Southeast 407 468 16,800 -1,980 Descending Boston Center
05:10PM 41.6961 -72.4539 143° Southeast 388 447 15,000 -1,800 Descending Boston Center
05:11PM 41.6083 -72.3706 145° Southeast 389 448 13,200 -1,860 Descending Boston Center
05:12PM 41.5250 -72.2875 143° Southeast 367 422 11,300 -1,560 Descending Boston Center
05:13PM 41.4478 -72.2103 143° Southeast 325 374 10,100 -1,620 Descending Boston Center
05:16PM 41.3000 -72.2167 182° South 257 296 5,900 -1,260 Descending New York TRACON
05:17PM 41.2333 -72.2667 209° Southwest 246 283 5,900 -180 Level New York TRACON
05:18PM 41.1833 -72.3167 217° Southwest 249 287 5,600 -1,020 Descending New York TRACON
05:19PM 41.1167 -72.3500 201° Southwest 239 275 3,900 -1,800 Descending New York TRACON
05:20PM 41.0667 -72.4000 217° Southwest 240 276 2,000 -1,020 Descending New York TRACON
05:21PM 41.0000 -72.4500 210° Southwest 245 282 1,900 -60 Descending New York TRACON
05:22PM 40.9500 -72.5000 217° Southwest 218 251 1,900 -300 Level New York TRACON
05:23PM 40.9167 -72.5333 217° Southwest 171 197 1,400 -480 Descending New York TRACON
05:24PM 40.8833 -72.5667 217° Southwest 119 137 1,000 -540 Descending New York TRACON
05:25PM 40.8667 -72.6000 237° Southwest 116 133 400 -600 Descending New York TRACON
05:27PM 40.8333 -72.6167 217° Southwest  Level FlightAware Approximate
05:34PM 40.8437 -72.6318 123° Southeast  Level Estimated